Time;durP1;ratioP1;P1;durP2;ratioP2;P2;SDS_P1;SDS_P2;PMS_P1;PMS_P2;Temp;Humidity;BMP_temperature;BMP_pressure;BME280_temperature;BME280_humidity;BME280_pressure;Samples;Min_cycle;Max_cycle;Signal;HPM_P1;HPM_P2
2022/09/08 00:05:03;;;;;;;6.45;3.53;;;;;;;17.14;63.03;99980.00;5048980;28;20037;-83
2022/09/08 00:07:42;;;;;;;8.70;3.55;;;;;;;16.99;63.00;99984.09;5020358;28;20045;-84
2022/09/08 00:10:53;;;;;;;6.15;3.80;;;;;;;17.62;62.74;100064.41;5031973;28;20037;-83
2022/09/08 00:13:20;;;;;;;7.63;4.20;;;;;;;17.36;62.44;100020.03;5043285;28;20546;-82
2022/09/08 00:16:07;;;;;;;6.47;4.30;;;;;;;17.09;62.88;100001.50;5051344;28;20037;-82
2022/09/08 00:19:12;;;;;;;9.05;4.35;;;;;;;16.66;63.25;99976.38;5090048;28;20101;-82
2022/09/08 00:25:20;;;;;;;6.30;3.97;;;;;;;16.57;64.66;100009.53;5088785;28;20067;-83
2022/09/08 00:28:13;;;;;;;11.75;5.60;;;;;;;16.44;64.70;100009.09;5077809;28;20043;-83
2022/09/08 00:31:05;;;;;;;6.95;4.43;;;;;;;16.58;64.51;100019.28;5057446;28;20040;-83
2022/09/08 00:33:32;;;;;;;5.65;4.28;;;;;;;16.22;64.76;99974.34;5032508;28;20052;-82
2022/09/08 00:35:58;;;;;;;5.22;3.90;;;;;;;16.25;65.31;100018.59;5073256;28;20482;-82
2022/09/08 00:38:26;;;;;;;6.22;4.15;;;;;;;16.38;64.88;100003.97;5069139;28;20028;-82
2022/09/08 00:40:52;;;;;;;6.32;3.97;;;;;;;16.52;64.55;99984.88;5051563;28;20024;-81
2022/09/08 00:43:34;;;;;;;7.78;4.05;;;;;;;17.00;65.02;100084.44;5069300;28;20029;-81
2022/09/08 00:46:09;;;;;;;6.07;3.75;;;;;;;17.08;64.78;100086.84;5064570;28;20146;-81
2022/09/08 00:48:40;;;;;;;6.47;4.57;;;;;;;16.60;65.01;100011.22;5089400;28;20040;-82
2022/09/08 00:51:13;;;;;;;7.65;4.18;;;;;;;16.54;65.20;100020.28;5078519;28;20051;-82
2022/09/08 00:53:47;;;;;;;5.43;3.92;;;;;;;16.88;65.37;100050.25;5068683;28;20033;-82
2022/09/08 00:56:22;;;;;;;10.48;3.40;;;;;;;16.71;65.31;100074.78;5084277;28;20040;-82
2022/09/08 00:58:51;;;;;;;7.05;3.33;;;;;;;16.58;65.16;100061.00;5071022;28;20545;-82
2022/09/08 01:01:27;;;;;;;7.18;3.63;;;;;;;16.61;65.93;100117.69;5084452;28;20036;-82
2022/09/08 01:03:55;;;;;;;4.53;3.67;;;;;;;15.83;66.82;100030.59;5085817;28;20115;-82
2022/09/08 01:15:08;;;;;;;7.13;3.33;;;;;;;15.57;68.17;100018.09;5082641;28;20098;-82
2022/09/08 01:17:33;;;;;;;6.30;4.30;;;;;;;15.46;69.19;100034.38;5068356;28;20181;-82
2022/09/08 01:20:08;;;;;;;10.77;3.90;;;;;;;15.50;69.31;100024.50;5068552;28;20044;-82
2022/09/08 01:23:01;;;;;;;5.25;3.50;;;;;;;15.80;70.55;100107.84;5068335;28;20037;-82
2022/09/08 01:25:53;;;;;;;6.18;4.38;;;;;;;15.76;70.95;100108.81;5066731;28;20123;-81
2022/09/08 01:29:16;;;;;;;5.90;4.03;;;;;;;15.51;71.16;100067.00;5068159;28;20043;-81
2022/09/08 01:31:47;;;;;;;6.10;3.45;;;;;;;15.45;70.65;100042.38;5035927;28;20131;-82
2022/09/08 01:34:13;;;;;;;7.65;4.05;;;;;;;15.51;69.99;100013.81;5067501;28;20040;-81
2022/09/08 01:36:44;;;;;;;7.38;4.35;;;;;;;15.35;70.48;100000.13;5066732;28;20555;-82
2022/09/08 01:39:10;;;;;;;6.22;3.83;;;;;;;15.66;69.99;100046.16;5068438;28;20040;-81
2022/09/08 01:44:59;;;;;;;6.63;4.72;;;;;;;15.17;70.76;99980.28;5067556;28;20586;-81
2022/09/08 01:47:51;;;;;;;5.43;4.13;;;;;;;15.29;71.51;100031.31;5066431;28;20039;-82
2022/09/08 01:50:20;;;;;;;8.85;5.22;;;;;;;15.58;71.05;100049.06;5065887;28;20465;-82
2022/09/08 01:52:46;;;;;;;4.68;3.95;;;;;;;15.54;70.82;100060.72;5066573;28;20052;-81
2022/09/08 01:55:12;;;;;;;8.57;4.65;;;;;;;15.32;70.67;99994.00;5067550;28;20028;-82
2022/09/08 01:57:38;;;;;;;8.60;4.72;;;;;;;14.93;71.82;100015.50;5067593;28;20036;-81
2022/09/08 02:00:05;;;;;;;8.55;4.30;;;;;;;14.86;72.45;99986.47;5067522;28;20024;-82
2022/09/08 02:02:35;;;;;;;6.60;5.03;;;;;;;15.35;72.08;100042.66;5067753;28;20037;-82
2022/09/08 02:05:03;;;;;;;9.27;5.30;;;;;;;15.23;72.38;100037.69;5066673;28;20117;-82
2022/09/08 02:07:32;;;;;;;8.30;5.80;;;;;;;14.89;72.82;99996.16;5067487;28;20051;-82
2022/09/08 02:09:58;;;;;;;6.05;4.63;;;;;;;15.16;72.09;100034.31;5065649;28;20528;-81
2022/09/08 02:12:23;;;;;;;7.32;5.10;;;;;;;15.03;72.27;100006.38;5067145;28;20034;-82
2022/09/08 02:14:49;;;;;;;7.40;5.18;;;;;;;15.25;71.59;100019.06;5067100;28;20530;-82
2022/09/08 02:17:15;;;;;;;;;;;;;;;15.83;71.52;100080.28;5072462;28;20056;-81
2022/09/08 02:19:40;;;;;;;8.02;5.07;;;;;;;15.39;70.73;99995.59;5087601;28;19920;-82
2022/09/08 02:22:24;;;;;;;;;;;;;;;16.15;69.68;100071.28;5086463;28;20032;-82
2022/09/08 02:24:49;;;;;;;8.57;5.43;;;;;;;15.63;70.03;100009.03;5068788;28;19927;-82
2022/09/08 02:27:14;;;;;;;14.82;5.07;;;;;;;15.74;70.51;100058.31;5087435;28;20488;-82
2022/09/08 02:29:40;;;;;;;9.45;5.75;;;;;;;15.34;70.80;99994.88;5087580;28;20036;-81
2022/09/08 02:32:06;;;;;;;8.43;5.03;;;;;;;15.63;70.50;100025.00;5087516;28;20135;-81
2022/09/08 02:37:40;;;;;;;8.13;5.22;;;;;;;14.97;72.15;99982.66;5015685;28;19916;-82
2022/09/08 02:40:45;;;;;;;;;;;;;;;;;;;;;
2022/09/08 02:44:10;;;;;;;7.57;4.97;;;;;;;14.56;73.56;99958.06;5065633;28;20048;-83
2022/09/08 02:50:48;;;;;;;7.75;5.13;;;;;;;15.39;73.13;100062.03;5067467;28;20109;-84
2022/09/08 02:53:14;;;;;;;7.47;5.35;;;;;;;14.92;72.50;99981.88;5047791;28;20048;-82
2022/09/08 02:55:41;;;;;;;7.40;4.85;;;;;;;15.29;72.53;100015.38;5077206;28;20043;-82
2022/09/08 02:58:08;;;;;;;8.57;5.50;;;;;;;15.48;71.36;100023.69;5085618;28;20039;-82
2022/09/08 03:00:38;;;;;;;7.93;4.95;;;;;;;15.46;70.84;100012.22;5052474;28;20031;-82
2022/09/08 03:03:04;;;;;;;8.70;4.68;;;;;;;15.29;71.25;99975.50;5078972;28;20087;-83
2022/09/08 03:05:30;;;;;;;6.13;4.93;;;;;;;15.37;71.63;100003.59;5066643;28;20497;-82
2022/09/08 03:07:58;;;;;;;9.55;4.95;;;;;;;15.13;71.46;99989.25;5066990;28;20029;-82
2022/09/08 03:10:23;;;;;;;7.28;4.63;;;;;;;15.06;71.20;99962.91;5084947;28;20043;-81
2022/09/08 03:12:53;;;;;;;7.82;4.85;;;;;;;15.54;70.11;100015.53;5087081;28;20122;-81
2022/09/08 03:15:20;;;;;;;8.88;4.97;;;;;;;15.36;69.90;99985.91;5085910;28;20108;-81
2022/09/08 03:17:46;;;;;;;7.00;4.75;;;;;;;15.25;70.69;99995.13;5080509;28;20044;-82
2022/09/08 03:20:12;;;;;;;7.57;5.10;;;;;;;15.22;71.04;100020.84;5075817;28;20552;-83
2022/09/08 03:22:49;;;;;;;;;;;;;;;15.47;71.52;100078.63;5063587;28;20029;-83
2022/09/08 03:25:42;;;;;;;5.82;3.88;;;;;;;15.34;71.22;100066.63;5065766;28;20041;-83
2022/09/08 03:28:10;;;;;;;7.97;4.53;;;;;;;15.13;71.40;100022.91;5040748;28;20534;-82
2022/09/08 03:30:37;;;;;;;8.77;4.72;;;;;;;14.99;70.95;99996.75;5065838;28;20147;-82
2022/09/08 03:33:03;;;;;;;9.65;5.00;;;;;;;14.72;72.49;99985.09;5066334;28;20481;-82
2022/09/08 03:35:37;;;;;;;8.75;5.82;;;;;;;14.99;71.17;100018.84;5064609;28;20080;-82
2022/09/08 03:38:03;;;;;;;8.38;5.30;;;;;;;15.26;70.84;100026.97;5068356;28;20036;-82
2022/09/08 03:40:28;;;;;;;6.53;4.82;;;;;;;15.15;70.96;100007.78;5069965;28;20097;-82
2022/09/08 03:42:54;;;;;;;;;;;;;;;15.85;70.54;100089.94;5071429;28;20040;-82
2022/09/08 03:45:20;;;;;;;8.52;6.10;;;;;;;15.43;69.90;100009.66;5070507;28;19925;-81
2022/09/08 03:47:47;;;;;;;9.05;5.80;;;;;;;15.52;70.04;100034.19;5054860;28;20040;-83
2022/09/08 03:50:15;;;;;;;12.10;4.65;;;;;;;15.47;69.06;100013.97;5063506;28;20037;-82
2022/09/08 03:52:40;;;;;;;9.10;4.80;;;;;;;15.50;69.23;100022.72;5069081;28;20033;-83
2022/09/08 03:55:08;;;;;;;7.03;5.63;;;;;;;15.55;69.99;100068.66;5068499;28;20093;-82
2022/09/08 03:57:54;;;;;;;6.47;4.45;;;;;;;15.87;69.91;100096.09;5067571;28;20054;-82
2022/09/08 04:01:03;;;;;;;;;;;;;;;;;;;;;
2022/09/08 04:03:57;;;;;;;8.40;5.28;;;;;;;15.99;68.89;100085.97;5067065;28;20039;-82
2022/09/08 04:06:31;;;;;;;7.47;5.07;;;;;;;15.63;68.86;100028.53;5067926;28;20040;-82
2022/09/08 04:09:17;;;;;;;6.97;5.47;;;;;;;15.43;69.36;100010.53;5090234;28;20501;-83
2022/09/08 04:11:42;;;;;;;8.65;5.10;;;;;;;15.75;69.46;100099.09;5090155;28;20032;-83
2022/09/08 04:14:08;;;;;;;6.03;4.57;;;;;;;15.10;69.71;100010.59;5075807;28;20047;-81
2022/09/08 04:16:34;;;;;;;7.82;5.57;;;;;;;15.71;69.71;100116.06;5073306;28;20041;-81
2022/09/08 04:18:59;;;;;;;;;;;;;;;15.68;69.69;100097.53;5088528;28;20056;-80
2022/09/08 04:21:25;;;;;;;15.05;5.13;;;;;;;15.40;69.56;100051.34;5087110;28;19916;-81
2022/09/08 04:23:50;;;;;;;6.95;5.20;;;;;;;15.19;69.82;100017.44;5085924;28;20140;-80
2022/09/08 04:26:16;;;;;;;8.73;4.57;;;;;;;15.38;69.93;100034.59;5079710;28;20189;-80
2022/09/08 04:28:42;;;;;;;9.80;4.80;;;;;;;15.14;70.02;100025.53;5070400;28;20482;-82
2022/09/08 04:31:11;;;;;;;11.10;5.45;;;;;;;15.62;70.16;100069.34;5051172;28;20583;-83
2022/09/08 04:33:37;;;;;;;8.00;4.57;;;;;;;15.66;69.97;100094.94;5067489;28;20059;-80
2022/09/08 04:36:12;;;;;;;7.70;4.90;;;;;;;15.49;69.88;100052.88;5073836;28;20051;-81
2022/09/08 04:38:39;;;;;;;6.20;4.30;;;;;;;15.60;69.51;100073.84;5063187;28;20029;-82
2022/09/08 04:41:06;;;;;;;7.10;4.38;;;;;;;15.20;69.77;100022.69;5083168;28;20035;-82
2022/09/08 04:43:33;;;;;;;7.40;4.55;;;;;;;15.39;70.25;100046.09;5085961;28;20076;-82
2022/09/08 04:46:08;;;;;;;8.65;5.13;;;;;;;15.51;69.60;100042.22;5072818;28;20052;-82
2022/09/08 04:48:36;;;;;;;8.52;5.30;;;;;;;15.54;71.22;100092.63;5075508;28;20040;-82
2022/09/08 04:51:03;;;;;;;7.18;5.07;;;;;;;15.96;70.58;100139.28;5081351;28;20116;-82
2022/09/08 04:53:30;;;;;;;6.97;4.93;;;;;;;15.45;70.98;100026.44;5088853;28;20717;-82
2022/09/08 04:55:56;;;;;;;7.78;5.57;;;;;;;15.80;70.87;100099.88;5088190;28;20512;-80
2022/09/08 04:58:22;;;;;;;8.15;5.90;;;;;;;15.70;70.20;100063.78;5080452;28;20059;-80
2022/09/08 05:00:48;;;;;;;16.80;7.18;;;;;;;15.77;69.99;100057.41;5078382;28;20064;-81
2022/09/08 05:03:14;;;;;;;9.35;6.00;;;;;;;15.98;69.79;100065.63;5084982;28;20502;-80
2022/09/08 05:05:40;;;;;;;9.25;6.40;;;;;;;15.97;69.88;100051.44;5086775;28;20032;-81
2022/09/08 05:08:16;;;;;;;8.43;6.13;;;;;;;16.18;69.93;100113.75;5084897;28;20035;-83
2022/09/08 05:10:41;;;;;;;7.20;5.05;;;;;;;16.35;69.08;100109.72;5070518;28;20135;-84
2022/09/08 05:13:08;;;;;;;8.82;5.72;;;;;;;16.50;68.41;100130.50;5088372;28;20585;-85
2022/09/08 05:15:33;;;;;;;11.00;5.65;;;;;;;16.65;67.73;100107.81;5077626;28;20040;-84
2022/09/08 05:17:59;;;;;;;8.38;5.53;;;;;;;16.51;67.80;100096.75;5068796;28;20083;-81
2022/09/08 05:20:24;;;;;;;15.68;6.65;;;;;;;16.80;68.14;100125.94;5066771;28;20127;-83
2022/09/08 05:22:50;;;;;;;9.57;5.15;;;;;;;16.85;67.22;100119.59;5066288;28;20024;-83
2022/09/08 05:25:16;;;;;;;7.00;4.55;;;;;;;16.58;66.98;100079.66;5079022;28;20562;-81
2022/09/08 05:27:42;;;;;;;9.65;4.95;;;;;;;16.63;65.72;100049.25;5083263;28;20028;-81
2022/09/08 05:30:07;;;;;;;7.32;4.50;;;;;;;17.04;65.73;100055.88;5076478;28;20101;-81
2022/09/08 05:32:34;;;;;;;6.78;4.53;;;;;;;16.88;65.48;100042.25;5084284;28;20032;-81
2022/09/08 05:34:59;;;;;;;7.80;4.43;;;;;;;17.24;64.79;100092.50;5072613;28;20093;-81
2022/09/08 05:37:27;;;;;;;7.18;4.18;;;;;;;17.23;64.94;100064.97;5087944;28;20032;-82
2022/09/08 05:39:54;;;;;;;6.72;4.03;;;;;;;17.40;64.33;100055.50;5088042;28;20020;-82
2022/09/08 05:42:20;;;;;;;6.68;3.92;;;;;;;17.47;63.45;100068.53;5087913;28;20097;-82
2022/09/08 05:44:45;;;;;;;6.43;3.92;;;;;;;17.34;63.38;100029.91;5087599;28;20039;-82
2022/09/08 05:47:11;;;;;;;7.13;4.82;;;;;;;17.94;62.99;100112.16;5068512;28;20036;-82
2022/09/08 05:49:36;;;;;;;7.97;4.20;;;;;;;17.90;63.23;100079.38;5066879;28;20032;-82
2022/09/08 05:52:02;;;;;;;8.43;5.15;;;;;;;18.02;61.90;100040.66;5070334;28;20476;-81
2022/09/08 05:54:27;;;;;;;5.78;3.85;;;;;;;18.43;61.22;100095.03;5081503;28;20118;-83
2022/09/08 05:56:53;;;;;;;7.03;4.95;;;;;;;18.61;60.80;100060.47;5086443;28;20121;-81
2022/09/08 05:59:18;;;;;;;7.00;4.28;;;;;;;18.85;59.66;100060.41;5067193;28;20413;-83
2022/09/08 06:01:44;;;;;;;5.95;3.97;;;;;;;19.34;59.13;100071.59;5087438;28;20039;-83
2022/09/08 06:04:09;;;;;;;8.38;6.03;;;;;;;19.74;56.88;100077.78;5087265;28;20085;-82
2022/09/08 06:06:35;;;;;;;6.70;4.07;;;;;;;19.87;55.93;100079.91;5082195;28;20028;-84
2022/09/08 06:09:04;;;;;;;7.90;4.47;;;;;;;19.91;55.01;100049.38;5087183;28;20778;-82
2022/09/08 06:11:32;;;;;;;9.95;5.15;;;;;;;20.53;54.81;100074.88;5080968;28;20036;-82
2022/09/08 06:13:58;;;;;;;6.68;4.20;;;;;;;20.36;54.41;100043.56;5065332;28;20033;-82
2022/09/08 06:16:23;;;;;;;6.45;4.47;;;;;;;20.89;53.74;100076.66;5067464;28;20038;-82
2022/09/08 06:18:50;;;;;;;14.73;5.30;;;;;;;21.08;53.77;100035.47;5067505;28;20135;-82
2022/09/08 06:21:22;;;;;;;6.47;3.90;;;;;;;21.72;52.41;100078.56;5067230;28;20028;-82
2022/09/08 06:23:49;;;;;;;10.60;5.60;;;;;;;21.55;50.71;100044.59;5066409;28;20129;-82
2022/09/08 06:26:15;;;;;;;7.78;5.53;;;;;;;22.28;50.63;100120.16;5067504;28;20145;-82
2022/09/08 06:28:50;;;;;;;9.45;4.43;;;;;;;21.70;51.30;100094.75;5065694;28;20459;-83
2022/09/08 06:31:29;;;;;;;6.72;4.15;;;;;;;21.92;50.59;100070.28;5067203;28;20028;-83
2022/09/08 06:33:58;;;;;;;8.07;4.25;;;;;;;21.88;51.64;100049.06;5067607;28;20048;-82
2022/09/08 06:36:31;;;;;;;7.88;4.35;;;;;;;22.08;49.80;100072.09;5067167;28;20051;-82
2022/09/08 06:39:05;;;;;;;6.72;3.80;;;;;;;21.94;49.54;100097.91;5067590;28;20447;-82
2022/09/08 06:41:38;;;;;;;13.02;4.53;;;;;;;22.00;50.42;100097.56;5066477;28;20407;-83
2022/09/08 06:44:16;;;;;;;8.25;4.45;;;;;;;21.97;49.98;100078.06;5067550;28;20024;-83
2022/09/08 06:46:44;;;;;;;6.22;4.20;;;;;;;22.22;48.46;100074.84;5067058;28;20028;-83
2022/09/08 06:49:11;;;;;;;7.70;3.55;;;;;;;22.85;47.92;100073.88;5067352;28;20458;-83
2022/09/08 06:52:00;;;;;;;6.22;3.22;;;;;;;23.14;48.14;100083.84;5066764;28;20059;-83
2022/09/08 06:54:40;;;;;;;5.50;3.42;;;;;;;23.50;47.28;100096.88;5067300;28;20031;-82
2022/09/08 06:57:26;;;;;;;6.28;4.30;;;;;;;23.72;46.51;100090.97;5067165;28;20514;-83
2022/09/08 07:00:06;;;;;;;6.72;3.85;;;;;;;23.81;46.75;100129.09;5066964;28;20029;-83
2022/09/08 07:02:34;;;;;;;7.22;3.80;;;;;;;23.97;45.03;100123.59;5066401;28;20059;-83
2022/09/08 07:05:06;;;;;;;8.07;4.10;;;;;;;24.58;45.11;100127.72;5066751;28;20501;-83
2022/09/08 07:07:52;;;;;;;6.80;4.47;;;;;;;24.90;44.60;100099.53;5065527;28;20064;-83
2022/09/08 07:10:24;;;;;;;12.45;4.15;;;;;;;25.09;42.06;100091.91;5066903;28;20127;-83
2022/09/08 07:13:02;;;;;;;7.93;3.50;;;;;;;25.20;43.24;100054.22;5066220;28;20043;-83
2022/09/08 07:15:54;;;;;;;8.35;5.72;;;;;;;25.33;43.85;100119.06;5065892;28;20025;-83
2022/09/08 07:18:28;;;;;;;6.63;3.45;;;;;;;24.83;42.00;100064.88;5065184;28;20052;-83
2022/09/08 08:01:49;;;;;;;4.45;3.05;;;;;;;25.39;43.08;100128.56;5066110;28;20101;-83
2022/09/08 08:04:36;;;;;;;6.40;3.50;;;;;;;25.27;40.56;100119.47;5066336;28;20059;-83
2022/09/08 08:07:08;;;;;;;5.03;3.28;;;;;;;25.22;40.94;100110.78;5066050;28;20130;-83
2022/09/08 08:09:58;;;;;;;6.57;3.17;;;;;;;26.02;40.30;100129.50;5066579;28;20028;-83
2022/09/08 08:12:45;;;;;;;9.73;2.83;;;;;;;25.90;40.79;100120.44;5066016;28;20093;-83
2022/09/08 08:15:23;;;;;;;5.10;3.45;;;;;;;26.54;38.71;100118.50;5066114;28;20029;-83
2022/09/08 08:17:49;;;;;;;10.00;3.28;;;;;;;26.56;39.76;100098.47;5066184;28;20045;-83
2022/09/08 08:20:32;;;;;;;11.80;4.03;;;;;;;26.67;39.07;100096.84;5065942;28;20437;-82
2022/09/08 08:23:09;;;;;;;5.65;3.85;;;;;;;26.65;39.22;100121.28;5066616;28;20075;-82
2022/09/08 08:25:44;;;;;;;7.03;3.35;;;;;;;26.47;37.29;100044.22;5069222;28;20029;-83
2022/09/08 08:28:17;;;;;;;10.68;3.13;;;;;;;26.61;37.52;100112.50;5068612;28;20029;-83
2022/09/08 08:30:54;;;;;;;6.13;3.60;;;;;;;26.90;37.55;100084.25;5069768;28;20036;-84
2022/09/08 08:33:28;;;;;;;9.70;4.18;;;;;;;26.55;36.52;100039.94;5068328;28;20041;-85
2022/09/08 08:36:05;;;;;;;5.65;3.60;;;;;;;25.82;38.73;100063.34;5069039;28;20115;-82
2022/09/08 08:38:35;;;;;;;7.43;3.25;;;;;;;26.18;37.80;100045.47;5069407;28;20029;-85
2022/09/08 08:41:06;;;;;;;5.97;3.67;;;;;;;26.36;40.99;100077.50;5069645;28;20038;-84
2022/09/08 08:44:01;;;;;;;6.68;3.47;;;;;;;25.95;38.79;100057.06;5064380;28;20028;-84
2022/09/08 08:46:48;;;;;;;7.95;2.97;;;;;;;26.29;39.54;100095.13;5056733;28;20426;-83
2022/09/08 08:50:07;;;;;;;7.05;3.78;;;;;;;26.36;37.70;100063.97;5069036;28;20136;-83
2022/09/08 08:53:13;;;;;;;5.13;2.53;;;;;;;27.03;37.38;100073.31;5009847;28;20041;-84
2022/09/08 08:56:17;;;;;;;8.00;3.28;;;;;;;26.88;35.91;100073.56;5066937;28;20032;-84
2022/09/08 08:59:33;;;;;;;6.25;3.38;;;;;;;26.59;37.10;100078.47;5068861;28;20026;-85
2022/09/08 09:02:29;;;;;;;5.28;3.00;;;;;;;26.36;39.54;100069.38;5024152;28;20081;-83
2022/09/08 09:05:32;;;;;;;7.80;4.47;;;;;;;26.67;37.78;100064.38;5067219;28;20844;-83
2022/09/08 09:08:08;;;;;;;5.72;2.95;;;;;;;26.03;38.58;100062.81;5068810;28;20037;-83
2022/09/08 09:10:48;;;;;;;9.00;3.65;;;;;;;26.05;38.05;100053.59;5068777;28;20536;-83
2022/09/08 09:13:27;;;;;;;6.03;3.88;;;;;;;26.31;38.64;100069.72;5068727;28;20036;-83
2022/09/08 09:16:22;;;;;;;11.18;4.70;;;;;;;26.12;37.22;100016.19;5067600;28;20029;-83
2022/09/08 09:19:06;;;;;;;5.43;3.80;;;;;;;26.49;37.15;100053.94;5085299;28;20071;-84
2022/09/08 09:21:53;;;;;;;10.07;3.17;;;;;;;26.11;38.84;100019.00;5096651;28;20123;-85
2022/09/08 09:24:57;;;;;;;8.32;3.85;;;;;;;26.17;37.71;99995.06;5088947;28;20024;-84
2022/09/08 09:27:26;;;;;;;9.20;3.67;;;;;;;26.92;37.26;100052.50;5073104;28;20090;-84
2022/09/08 09:30:15;;;;;;;5.72;2.70;;;;;;;26.65;36.23;99972.47;5100423;28;20028;-85
2022/09/08 09:32:52;;;;;;;5.75;3.63;;;;;;;26.82;37.02;100044.25;5089545;28;20843;-84
2022/09/08 09:35:27;;;;;;;4.40;3.03;;;;;;;26.48;38.05;100040.53;5066827;28;20055;-84
2022/09/08 09:38:13;;;;;;;5.55;3.70;;;;;;;26.06;37.90;99973.41;5066933;28;20058;-84
2022/09/08 09:41:13;;;;;;;5.88;3.22;;;;;;;26.60;37.48;100026.94;5066944;28;20068;-84
2022/09/08 09:43:47;;;;;;;5.53;3.15;;;;;;;27.12;36.92;100035.56;5067182;28;20039;-85
2022/09/08 09:46:37;;;;;;;6.73;3.53;;;;;;;27.16;37.43;99998.28;5075694;28;20036;-83
2022/09/08 09:49:29;;;;;;;10.30;3.53;;;;;;;26.59;39.97;99967.56;5071235;28;20905;-84
2022/09/08 09:51:57;;;;;;;4.20;2.63;;;;;;;26.63;37.03;100010.47;5081737;28;20132;-84
2022/09/08 09:54:38;;;;;;;5.55;3.05;;;;;;;27.10;37.12;100015.03;5088287;28;20027;-84
2022/09/08 09:57:42;;;;;;;4.65;2.67;;;;;;;27.16;38.03;100011.84;5078798;28;20034;-83
2022/09/08 10:00:18;;;;;;;4.63;3.22;;;;;;;27.00;37.41;99987.81;5068846;28;20429;-85
2022/09/08 10:03:04;;;;;;;8.45;3.30;;;;;;;26.80;37.79;99965.03;5087847;28;20039;-85
2022/09/08 10:05:50;;;;;;;4.53;3.08;;;;;;;26.87;37.58;99995.19;5044321;28;20138;-83
2022/09/08 10:08:31;;;;;;;4.78;2.83;;;;;;;27.12;37.60;99996.81;5086417;28;20743;-83
2022/09/08 10:11:12;;;;;;;5.05;3.25;;;;;;;27.06;39.64;99997.28;5087941;28;20033;-83
2022/09/08 10:14:19;;;;;;;4.32;2.83;;;;;;;26.79;40.30;100001.19;5087287;28;20060;-83
2022/09/08 10:17:22;;;;;;;4.63;2.45;;;;;;;26.80;38.36;99986.66;5069213;28;20047;-84
2022/09/08 10:20:17;;;;;;;6.28;3.13;;;;;;;26.72;38.15;99983.72;5028972;28;20079;-84
2022/09/08 10:23:13;;;;;;;4.60;3.22;;;;;;;26.45;39.02;99974.88;5065655;28;20067;-84
2022/09/08 10:26:15;;;;;;;4.53;2.72;;;;;;;26.81;38.47;99988.41;5071412;28;20024;-84
2022/09/08 10:29:02;;;;;;;9.02;3.20;;;;;;;27.02;38.52;99976.84;5066426;28;20025;-84
2022/09/08 10:32:01;;;;;;;4.55;2.70;;;;;;;27.26;38.59;99977.59;5066065;28;20024;-84
2022/09/08 10:34:38;;;;;;;5.55;3.40;;;;;;;27.34;37.02;99968.88;5081004;28;20038;-85
2022/09/08 10:37:17;;;;;;;6.55;4.07;;;;;;;27.39;37.22;99934.19;5068773;28;20039;-84
2022/09/08 10:40:24;;;;;;;6.35;3.30;;;;;;;27.26;37.26;99918.03;5068754;28;20044;-84
2022/09/08 10:42:53;;;;;;;8.05;3.47;;;;;;;27.32;35.89;99928.41;5087142;28;20044;-84
2022/09/08 10:45:43;;;;;;;8.13;3.03;;;;;;;27.62;36.52;99956.69;5086849;28;20035;-83
2022/09/08 10:48:27;;;;;;;4.90;2.90;;;;;;;27.40;37.39;99916.09;5069609;28;20456;-84
2022/09/08 10:50:54;;;;;;;4.63;3.30;;;;;;;27.12;37.62;99889.38;5086969;28;20028;-83
2022/09/08 10:53:47;;;;;;;4.07;2.55;;;;;;;27.02;39.38;99887.53;5087218;28;20036;-84
2022/09/08 10:56:14;;;;;;;4.90;2.80;;;;;;;27.69;36.67;99914.53;5087227;28;20417;-83
2022/09/08 10:58:49;;;;;;;5.15;3.28;;;;;;;27.58;38.39;99929.97;5087321;28;20074;-84
2022/09/08 11:01:33;;;;;;;4.90;2.70;;;;;;;27.66;37.54;99936.47;5087156;28;20032;-83
2022/09/08 11:04:36;;;;;;;6.13;3.00;;;;;;;27.93;37.60;99926.16;5087064;28;20046;-83
2022/09/08 11:07:17;;;;;;;8.68;3.33;;;;;;;28.09;36.42;99920.34;5087014;28;20289;-83
2022/09/08 11:10:07;;;;;;;5.05;2.72;;;;;;;27.79;36.68;99832.47;5087014;28;20066;-85
2022/09/08 11:13:12;;;;;;;5.55;3.47;;;;;;;27.92;38.04;99872.94;5078603;28;20040;-86
2022/09/08 11:16:11;;;;;;;6.13;3.80;;;;;;;28.43;36.49;99893.03;5086295;28;20039;-85
2022/09/08 11:18:52;;;;;;;3.65;2.75;;;;;;;27.94;35.34;99838.44;5098253;28;20044;-84
2022/09/08 11:21:28;;;;;;;5.30;3.25;;;;;;;27.81;36.14;99806.97;5106934;28;20088;-86
2022/09/08 11:24:04;;;;;;;7.22;3.53;;;;;;;27.71;35.17;99821.41;5107196;28;20028;-84
2022/09/08 11:26:52;;;;;;;6.05;4.03;;;;;;;27.75;35.49;99806.63;5106760;28;20039;-85
2022/09/08 11:29:19;;;;;;;12.32;3.72;;;;;;;28.04;36.21;99845.69;5107618;28;20036;-84
2022/09/08 11:31:53;;;;;;;7.10;3.70;;;;;;;28.23;37.05;99882.91;5107428;28;20035;-84
2022/09/08 11:34:39;;;;;;;4.18;2.70;;;;;;;28.47;34.89;99875.47;5088809;28;20067;-83
2022/09/08 11:37:14;;;;;;;5.90;2.88;;;;;;;28.48;35.45;99848.22;5107164;28;20036;-83
2022/09/08 11:39:55;;;;;;;9.48;3.63;;;;;;;28.54;35.54;99871.25;5106987;28;20054;-85
2022/09/08 11:42:43;;;;;;;7.72;3.03;;;;;;;28.53;35.12;99859.56;5106963;28;20028;-85
2022/09/08 11:45:48;;;;;;;3.95;2.75;;;;;;;28.80;36.33;99870.84;5098207;28;20035;-84
2022/09/08 11:48:20;;;;;;;6.95;2.75;;;;;;;28.86;34.29;99856.72;5107245;28;20110;-86
2022/09/08 11:51:07;;;;;;;5.07;2.75;;;;;;;28.78;34.16;99854.69;5088616;28;20035;-83
2022/09/08 11:54:12;;;;;;;5.38;2.65;;;;;;;28.21;34.44;99779.16;5088682;28;20398;-84
2022/09/08 11:57:01;;;;;;;4.57;3.08;;;;;;;28.75;34.78;99847.69;5106966;28;20030;-84
2022/09/08 11:59:27;;;;;;;5.72;3.17;;;;;;;28.57;35.09;99849.28;5110236;28;20027;-84
2022/09/08 12:02:26;;;;;;;6.28;3.33;;;;;;;28.72;34.36;99842.53;5110754;28;20030;-84
2022/09/08 12:05:37;;;;;;;7.88;2.97;;;;;;;28.49;34.93;99811.13;5110507;28;20062;-83
2022/09/08 12:08:35;;;;;;;4.30;2.85;;;;;;;28.79;34.34;99771.41;5110432;28;20039;-83
2022/09/08 12:11:17;;;;;;;5.18;2.45;;;;;;;28.71;34.32;99820.94;5110343;28;20036;-83
2022/09/08 12:13:42;;;;;;;4.03;2.30;;;;;;;28.79;34.11;99822.97;5110300;28;20020;-82
2022/09/08 12:16:23;;;;;;;7.97;2.95;;;;;;;29.03;33.62;99818.06;5110586;28;20038;-84
2022/09/08 12:19:07;;;;;;;4.93;2.55;;;;;;;29.37;33.40;99828.59;5110407;28;20425;-85
2022/09/08 12:21:40;;;;;;;7.23;2.77;;;;;;;28.70;33.64;99778.53;5105896;28;20517;-84
2022/09/08 12:24:39;;;;;;;7.65;2.72;;;;;;;28.34;32.86;99762.63;5110794;28;20312;-84
2022/09/08 12:27:23;;;;;;;3.45;2.42;;;;;;;29.17;32.60;99814.09;5110194;28;20560;-82
2022/09/08 12:30:02;;;;;;;4.10;2.37;;;;;;;29.21;32.56;99815.56;5092405;28;20028;-82
2022/09/08 12:32:41;;;;;;;4.90;2.40;;;;;;;28.66;31.86;99737.25;5110296;28;20821;-82
2022/09/08 12:35:22;;;;;;;4.57;2.17;;;;;;;29.16;32.27;99803.38;5091808;28;20035;-85
2022/09/08 12:38:24;;;;;;;5.88;2.63;;;;;;;29.26;31.62;99802.41;5110551;28;20023;-84
2022/09/08 12:40:57;;;;;;;3.78;2.40;;;;;;;28.85;31.36;99754.56;5110278;28;20122;-83
2022/09/08 12:43:37;;;;;;;3.67;2.53;;;;;;;29.19;32.04;99744.19;5109885;28;20470;-85
2022/09/08 12:46:22;;;;;;;3.15;2.40;;;;;;;29.63;31.81;99793.56;5110273;28;20035;-84
2022/09/08 12:49:11;;;;;;;3.92;3.08;;;;;;;29.06;30.68;99744.47;5091858;28;20028;-84
2022/09/08 12:51:38;;;;;;;4.93;1.85;;;;;;;29.26;30.64;99764.38;5105241;28;20035;-86
2022/09/08 12:54:38;;;;;;;4.07;2.10;;;;;;;29.22;31.00;99764.81;5108437;28;20102;-86
2022/09/08 12:57:46;;;;;;;5.80;3.58;;;;;;;29.01;30.67;99765.75;5091503;28;20042;-86
2022/09/08 13:00:14;;;;;;;3.05;1.60;;;;;;;29.33;30.35;99794.53;5109706;28;20118;-82
2022/09/08 13:02:52;;;;;;;4.30;2.67;;;;;;;29.52;30.56;99793.72;5099949;28;20040;-82
2022/09/08 13:05:23;;;;;;;2.95;2.00;;;;;;;29.67;29.50;99793.28;5109037;28;20027;-83
2022/09/08 13:08:02;;;;;;;3.03;1.92;;;;;;;29.75;30.17;99748.06;5110118;28;20034;-83
2022/09/08 13:10:38;;;;;;;6.18;2.25;;;;;;;29.65;30.17;99752.66;5109482;28;20132;-81
2022/09/08 13:13:36;;;;;;;5.85;2.10;;;;;;;29.57;29.98;99714.50;5109246;28;20042;-82
2022/09/08 13:16:08;;;;;;;4.13;2.17;;;;;;;30.01;31.04;99774.66;5109429;28;20070;-83
2022/09/08 13:18:45;;;;;;;6.63;2.17;;;;;;;29.48;30.78;99758.81;5108875;28;20490;-83
2022/09/08 13:21:23;;;;;;;3.90;2.22;;;;;;;29.93;30.68;99793.56;5089967;28;20095;-84
2022/09/08 13:23:53;;;;;;;4.32;2.40;;;;;;;30.04;29.55;99790.69;5108980;28;20031;-81
2022/09/08 13:26:30;;;;;;;5.75;2.65;;;;;;;29.82;29.86;99781.84;5109609;28;20032;-82